Time;durP1;ratioP1;P1;durP2;ratioP2;P2;SDS_P1;SDS_P2;PMS_P1;PMS_P2;Temp;Humidity;BMP_temperature;BMP_pressure;BME280_temperature;BME280_humidity;BME280_pressure;Samples;Min_cycle;Max_cycle;Signal;HPM_P1;HPM_P2
2022/12/15 00:40:21;;;;;;;;;66.75;52.00;;;;;;;;5084830;28;8838;-79
2022/12/15 00:42:48;;;;;;;;;64.75;54.00;;;;;;;;5084276;28;8869;-80
2022/12/15 00:45:16;;;;;;;;;67.50;58.00;;;;;;;;5081102;28;8834;-80
2022/12/15 00:47:43;;;;;;;;;70.25;60.25;;;;;;;;5082040;28;8958;-80
2022/12/15 01:20:26;;;;;;;;;68.00;58.00;;;;;;;;5087885;28;8829;-79
2022/12/15 01:22:56;;;;;;;;;69.50;59.00;;;;;;;;5085959;28;8844;-80
2022/12/15 01:25:25;;;;;;;;;73.75;62.00;;;;;;;;5087041;28;8844;-79
2022/12/15 01:27:52;;;;;;;;;74.00;61.00;;;;;;;;5087541;28;8836;-79
2022/12/15 01:30:22;;;;;;;;;66.00;55.00;;;;;;;;5085240;28;8836;-79
2022/12/15 01:32:50;;;;;;;;;73.25;60.75;;;;;;;;5085252;28;8832;-80
2022/12/15 01:35:18;;;;;;;;;69.25;57.50;;;;;;;;5083096;28;8867;-80
2022/12/15 01:37:46;;;;;;;;;70.00;59.50;;;;;;;;5086440;28;8955;-79
2022/12/15 01:43:02;;;;;;;;;75.25;59.75;;;;;;;;5083746;28;10567;-79
2022/12/15 01:45:57;;;;;;;;;74.75;60.50;;;;;;;;5085921;28;8860;-80
2022/12/15 01:48:35;;;;;;;;;73.25;60.50;;;;;;;;5084819;28;8983;-80
2022/12/15 01:51:11;;;;;;;;;66.00;55.75;;;;;;;;5086669;28;8840;-80
2022/12/15 01:53:45;;;;;;;;;71.25;59.00;;;;;;;;5085731;28;8836;-80
2022/12/15 01:56:14;;;;;;;;;67.00;56.50;;;;;;;;5085053;28;8853;-80
2022/12/15 01:58:45;;;;;;;;;71.25;61.25;;;;;;;;5085361;28;8856;-80
2022/12/15 02:01:12;;;;;;;;;73.25;58.75;;;;;;;;5085150;28;8836;-80
2022/12/15 02:03:40;;;;;;;;;72.25;61.25;;;;;;;;5084470;28;8840;-80
2022/12/15 02:06:09;;;;;;;;;83.75;67.50;;;;;;;;5070357;28;9644;-79
2022/12/15 02:08:38;;;;;;;;;70.50;59.25;;;;;;;;5086846;28;8820;-80
2022/12/15 02:11:34;;;;;;;;;69.00;57.00;;;;;;;;5085517;28;8870;-80
2022/12/15 02:14:03;;;;;;;;;79.50;63.75;;;;;;;;5085979;28;8880;-80
2022/12/15 02:16:42;;;;;;;;;68.75;58.50;;;;;;;;5085902;28;8848;-80
2022/12/15 02:19:25;;;;;;;;;76.25;62.50;;;;;;;;5085147;28;8860;-80
2022/12/15 02:22:04;;;;;;;;;52.25;46.75;;;;;;;;5085825;28;9241;-79
2022/12/15 02:25:06;;;;;;;;;76.00;61.75;;;;;;;;5084092;28;8852;-80
2022/12/15 02:27:52;;;;;;;;;72.25;61.50;;;;;;;;5085532;28;8861;-80
2022/12/15 02:30:43;;;;;;;;;75.50;63.00;;;;;;;;5083046;28;8820;-80
2022/12/15 02:33:16;;;;;;;;;65.25;56.00;;;;;;;;5084951;28;8830;-80
2022/12/15 02:36:05;;;;;;;;;76.50;61.25;;;;;;;;5085551;28;8832;-81
2022/12/15 02:38:35;;;;;;;;;80.25;64.50;;;;;;;;5084692;28;8844;-80
2022/12/15 02:41:04;;;;;;;;;67.75;58.00;;;;;;;;5084749;28;8974;-80
2022/12/15 02:43:34;;;;;;;;;72.00;60.00;;;;;;;;5082092;28;8891;-80
2022/12/15 02:46:15;;;;;;;;;67.75;57.25;;;;;;;;5083977;28;8965;-80
2022/12/15 02:48:54;;;;;;;;;70.00;58.50;;;;;;;;5085312;28;8835;-80
2022/12/15 02:51:34;;;;;;;;;71.25;61.00;;;;;;;;5085531;28;8876;-79
2022/12/15 02:54:28;;;;;;;;;62.50;53.00;;;;;;;;5083431;28;8918;-80
2022/12/15 02:57:04;;;;;;;;;69.25;57.00;;;;;;;;5086309;28;8941;-80
2022/12/15 02:59:39;;;;;;;;;63.25;53.25;;;;;;;;5084395;28;8844;-80
2022/12/15 03:02:11;;;;;;;;;65.75;57.00;;;;;;;;5081661;28;8916;-80
2022/12/15 03:04:39;;;;;;;;;72.00;61.00;;;;;;;;5085152;28;8980;-79
2022/12/15 03:07:11;;;;;;;;;85.00;66.25;;;;;;;;5086369;28;8842;-80
2022/12/15 03:09:38;;;;;;;;;75.50;61.00;;;;;;;;5082174;28;8990;-79
2022/12/15 03:12:07;;;;;;;;;81.50;65.50;;;;;;;;5084648;28;9648;-79
2022/12/15 03:14:34;;;;;;;;;79.50;64.75;;;;;;;;5082536;28;8979;-80
2022/12/15 03:17:02;;;;;;;;;67.00;55.50;;;;;;;;5082685;28;8836;-79
2022/12/15 03:19:32;;;;;;;;;61.75;54.25;;;;;;;;5083832;28;8825;-79
2022/12/15 03:21:59;;;;;;;;;69.25;59.50;;;;;;;;5084596;28;8862;-80
2022/12/15 03:24:27;;;;;;;;;66.50;57.50;;;;;;;;5082587;28;8864;-79
2022/12/15 03:26:55;;;;;;;;;66.75;57.00;;;;;;;;5082701;28;9652;-80
2022/12/15 03:29:22;;;;;;;;;67.50;56.75;;;;;;;;5084518;28;9569;-80
2022/12/15 03:31:50;;;;;;;;;70.00;60.50;;;;;;;;5083324;28;8853;-80
2022/12/15 03:34:17;;;;;;;;;64.25;55.50;;;;;;;;5082925;28;8836;-80
2022/12/15 03:36:46;;;;;;;;;71.00;59.50;;;;;;;;5081954;28;8830;-80
2022/12/15 03:39:14;;;;;;;;;69.00;56.50;;;;;;;;5083538;28;8844;-79
2022/12/15 03:41:42;;;;;;;;;72.00;59.75;;;;;;;;5085647;28;8970;-80
2022/12/15 03:44:09;;;;;;;;;71.00;57.50;;;;;;;;5082229;28;9629;-80
2022/12/15 03:46:37;;;;;;;;;64.50;54.50;;;;;;;;5084800;28;8901;-80
2022/12/15 03:49:05;;;;;;;;;72.25;60.50;;;;;;;;5084299;28;8845;-80
2022/12/15 03:51:32;;;;;;;;;69.50;57.25;;;;;;;;5085217;28;8851;-81
2022/12/15 03:54:01;;;;;;;;;72.00;60.00;;;;;;;;5084954;28;8860;-79
2022/12/15 03:56:29;;;;;;;;;63.00;54.75;;;;;;;;5082074;28;9642;-80
2022/12/15 03:58:56;;;;;;;;;70.50;58.75;;;;;;;;5082540;28;8842;-80
2022/12/15 04:01:27;;;;;;;;;65.50;54.50;;;;;;;;5082484;28;8868;-80
2022/12/15 04:03:55;;;;;;;;;57.00;50.50;;;;;;;;5081117;28;8833;-80
2022/12/15 04:06:24;;;;;;;;;68.00;57.50;;;;;;;;5082950;28;8852;-80
2022/12/15 04:08:52;;;;;;;;;67.00;57.25;;;;;;;;5083955;28;8868;-80
2022/12/15 04:11:21;;;;;;;;;69.25;54.25;;;;;;;;5084559;28;8850;-80
2022/12/15 04:13:49;;;;;;;;;71.75;59.50;;;;;;;;5082485;28;8832;-80
2022/12/15 04:16:16;;;;;;;;;70.00;58.00;;;;;;;;5082962;28;8866;-81
2022/12/15 04:18:44;;;;;;;;;73.25;61.50;;;;;;;;5085101;28;8866;-81
2022/12/15 04:21:10;;;;;;;;;81.00;65.75;;;;;;;;5082969;28;8816;-80
2022/12/15 04:23:38;;;;;;;;;72.25;61.50;;;;;;;;5086707;28;8865;-80
2022/12/15 05:32:22;;;;;;;;;80.00;66.00;;;;;;;;5083110;28;8828;-79
2022/12/15 05:34:52;;;;;;;;;78.50;66.25;;;;;;;;5082070;28;8989;-79
2022/12/15 05:37:20;;;;;;;;;80.25;63.50;;;;;;;;5083120;28;8848;-78
2022/12/15 05:39:47;;;;;;;;;73.25;61.75;;;;;;;;5080802;28;8903;-78
2022/12/15 05:42:15;;;;;;;;;76.25;62.50;;;;;;;;5083919;28;8868;-78
2022/12/15 05:44:42;;;;;;;;;83.25;67.25;;;;;;;;5085337;28;8976;-79
2022/12/15 05:47:11;;;;;;;;;79.50;65.25;;;;;;;;5084560;28;8894;-78
2022/12/15 05:49:39;;;;;;;;;56.75;51.25;;;;;;;;5086781;28;8873;-78
2022/12/15 05:52:08;;;;;;;;;81.50;66.50;;;;;;;;5085752;28;8852;-81
2022/12/15 05:54:36;;;;;;;;;80.75;67.00;;;;;;;;5081220;28;8850;-77
2022/12/15 05:57:03;;;;;;;;;66.50;56.75;;;;;;;;5086032;28;8856;-78
2022/12/15 05:59:31;;;;;;;;;85.25;69.00;;;;;;;;5085637;28;8838;-77
2022/12/15 06:01:59;;;;;;;;;83.25;68.00;;;;;;;;5065533;28;8850;-79
2022/12/15 06:04:26;;;;;;;;;75.50;64.50;;;;;;;;5083801;28;8850;-78
2022/12/15 06:06:54;;;;;;;;;77.00;59.00;;;;;;;;5084037;28;8854;-78
2022/12/15 06:09:23;;;;;;;;;78.00;64.25;;;;;;;;5084115;28;9668;-77
2022/12/15 06:11:50;;;;;;;;;84.00;68.00;;;;;;;;5085453;28;8954;-78
2022/12/15 06:14:18;;;;;;;;;80.50;66.25;;;;;;;;5083592;28;8850;-78
2022/12/15 06:16:45;;;;;;;;;74.75;64.00;;;;;;;;5083145;28;8819;-78
2022/12/15 06:19:14;;;;;;;;;76.75;64.50;;;;;;;;5066182;28;8881;-78
2022/12/15 06:21:41;;;;;;;;;80.25;65.00;;;;;;;;5083712;28;8822;-79
2022/12/15 06:24:10;;;;;;;;;78.00;64.50;;;;;;;;5065605;28;8868;-79
2022/12/15 06:26:40;;;;;;;;;75.75;63.00;;;;;;;;5084192;28;8857;-77
2022/12/15 06:29:09;;;;;;;;;74.50;61.50;;;;;;;;5065796;28;8846;-78
2022/12/15 06:31:37;;;;;;;;;79.25;65.75;;;;;;;;5107344;27;8834;-78
2022/12/15 06:34:07;;;;;;;;;71.25;56.00;;;;;;;;5105826;27;8828;-78
2022/12/15 06:36:35;;;;;;;;;66.25;57.25;;;;;;;;5103274;28;8864;-78
2022/12/15 06:39:04;;;;;;;;;70.00;60.50;;;;;;;;5087337;28;8840;-79
2022/12/15 06:41:31;;;;;;;;;79.00;66.25;;;;;;;;5103127;27;8879;-80
2022/12/15 06:44:02;;;;;;;;;78.50;64.50;;;;;;;;5105175;28;8987;-80
2022/12/15 06:46:33;;;;;;;;;69.00;57.50;;;;;;;;5106019;27;8836;-81
2022/12/15 06:49:01;;;;;;;;;80.25;65.00;;;;;;;;5103380;28;8893;-81
2022/12/15 06:51:29;;;;;;;;;76.25;64.00;;;;;;;;5122324;27;8878;-80
2022/12/15 06:53:57;;;;;;;;;71.75;57.75;;;;;;;;5105278;27;8859;-80
2022/12/15 06:56:27;;;;;;;;;66.75;57.50;;;;;;;;5105359;27;8995;-82
2022/12/15 06:58:55;;;;;;;;;82.00;66.00;;;;;;;;5087163;28;8840;-79
2022/12/15 07:01:25;;;;;;;;;71.50;60.25;;;;;;;;5102909;28;8864;-79
2022/12/15 07:03:53;;;;;;;;;69.25;59.25;;;;;;;;5104522;28;8828;-80
2022/12/15 07:06:24;;;;;;;;;80.50;66.00;;;;;;;;5120227;27;8863;-80
2022/12/15 07:08:55;;;;;;;;;69.00;59.50;;;;;;;;5090532;28;8958;-78
2022/12/15 07:11:23;;;;;;;;;72.00;60.50;;;;;;;;5105363;28;9629;-79
2022/12/15 07:13:51;;;;;;;;;77.50;62.50;;;;;;;;5089561;28;8894;-79
2022/12/15 07:16:20;;;;;;;;;84.00;68.50;;;;;;;;5104906;28;8851;-78
2022/12/15 07:18:49;;;;;;;;;73.25;62.75;;;;;;;;5106207;27;8932;-78
2022/12/15 07:21:20;;;;;;;;;82.25;64.25;;;;;;;;5085579;28;8818;-78
2022/12/15 07:23:47;;;;;;;;;71.50;60.25;;;;;;;;5086886;28;8858;-77
2022/12/15 07:26:15;;;;;;;;;89.50;72.50;;;;;;;;5090386;28;8820;-79
2022/12/15 07:28:51;;;;;;;;;91.75;74.50;;;;;;;;5104353;28;8854;-78
2022/12/15 07:31:19;;;;;;;;;76.75;62.75;;;;;;;;5104999;28;8828;-79
2022/12/15 07:33:50;;;;;;;;;81.00;67.00;;;;;;;;5086980;28;8842;-81
2022/12/15 07:36:20;;;;;;;;;82.75;67.75;;;;;;;;5104470;27;8867;-77
2022/12/15 07:38:48;;;;;;;;;86.75;69.00;;;;;;;;5086199;28;8908;-77
2022/12/15 07:41:19;;;;;;;;;82.25;65.50;;;;;;;;5101866;28;8840;-78
2022/12/15 07:43:46;;;;;;;;;73.00;62.50;;;;;;;;5104829;28;8911;-76
2022/12/15 07:46:14;;;;;;;;;69.00;57.00;;;;;;;;5103905;28;9600;-76
2022/12/15 07:48:42;;;;;;;;;49.00;47.00;;;;;;;;5106303;27;8887;-75
2022/12/15 07:51:11;;;;;;;;;71.50;60.00;;;;;;;;5086714;28;8856;-77
2022/12/15 07:53:39;;;;;;;;;75.25;62.50;;;;;;;;5103549;28;8844;-77
2022/12/15 07:56:07;;;;;;;;;72.50;61.00;;;;;;;;5104855;27;8978;-76
2022/12/15 07:58:35;;;;;;;;;76.75;63.50;;;;;;;;5103258;27;8840;-76
2022/12/15 08:01:04;;;;;;;;;71.00;59.50;;;;;;;;5103710;28;8868;-74
2022/12/15 08:03:31;;;;;;;;;75.00;58.75;;;;;;;;5102366;28;8841;-75
2022/12/15 08:05:58;;;;;;;;;82.75;65.75;;;;;;;;5102835;28;8868;-74
2022/12/15 08:08:27;;;;;;;;;75.00;61.00;;;;;;;;5104857;27;8974;-75
2022/12/15 08:10:55;;;;;;;;;68.50;59.00;;;;;;;;5102273;27;9608;-78
2022/12/15 08:13:22;;;;;;;;;82.50;65.00;;;;;;;;5101155;27;8895;-74
2022/12/15 08:15:54;;;;;;;;;85.25;68.50;;;;;;;;5102022;27;8879;-75
2022/12/15 08:18:21;;;;;;;;;81.00;67.25;;;;;;;;5102404;27;8832;-75
2022/12/15 08:20:49;;;;;;;;;86.25;68.75;;;;;;;;5083202;28;9629;-76
2022/12/15 08:23:17;;;;;;;;;90.00;73.75;;;;;;;;5101285;27;8994;-76
2022/12/15 08:25:46;;;;;;;;;94.25;75.25;;;;;;;;5100868;28;8955;-75
2022/12/15 08:28:14;;;;;;;;;102.50;86.00;;;;;;;;5102006;27;8848;-75
2022/12/15 08:30:42;;;;;;;;;104.25;87.25;;;;;;;;5085148;28;8879;-75
2022/12/15 08:33:10;;;;;;;;;95.25;75.50;;;;;;;;5084959;28;8836;-75
2022/12/15 08:35:40;;;;;;;;;93.50;75.50;;;;;;;;5102464;28;8886;-72
2022/12/15 08:38:07;;;;;;;;;92.25;71.00;;;;;;;;5079942;27;9257;-74
2022/12/15 08:40:34;;;;;;;;;76.25;63.25;;;;;;;;5098666;28;8852;-76
2022/12/15 08:43:03;;;;;;;;;75.00;63.00;;;;;;;;5099248;27;8872;-74
2022/12/15 08:45:30;;;;;;;;;83.50;69.00;;;;;;;;5103360;28;8871;-72
2022/12/15 08:47:58;;;;;;;;;83.00;68.00;;;;;;;;5083618;27;8958;-71
2022/12/15 08:50:25;;;;;;;;;82.50;66.50;;;;;;;;5102035;28;8852;-69
2022/12/15 08:52:53;;;;;;;;;81.25;66.75;;;;;;;;5082812;27;8852;-75
2022/12/15 08:55:22;;;;;;;;;83.50;69.00;;;;;;;;5082448;28;9013;-72
2022/12/15 08:57:50;;;;;;;;;88.75;71.50;;;;;;;;5101542;28;8861;-71
2022/12/15 09:00:19;;;;;;;;;69.75;57.50;;;;;;;;5103206;28;8836;-70
2022/12/15 09:02:47;;;;;;;;;63.00;55.75;;;;;;;;5101758;28;8890;-73
2022/12/15 09:05:14;;;;;;;;;77.75;63.75;;;;;;;;5100995;28;8825;-72
2022/12/15 09:07:42;;;;;;;;;75.75;61.50;;;;;;;;5101960;27;8836;-73
2022/12/15 09:10:09;;;;;;;;;74.00;63.50;;;;;;;;5083845;28;8847;-72
2022/12/15 09:12:37;;;;;;;;;79.50;67.00;;;;;;;;5084092;27;8854;-72
2022/12/15 09:15:06;;;;;;;;;79.50;66.50;;;;;;;;5104509;27;8895;-73
2022/12/15 09:17:35;;;;;;;;;74.00;60.25;;;;;;;;5104645;27;8836;-74
2022/12/15 09:20:03;;;;;;;;;81.25;68.00;;;;;;;;5102972;27;8855;-74
2022/12/15 09:22:31;;;;;;;;;79.50;66.00;;;;;;;;5086581;28;8950;-74
2022/12/15 09:24:59;;;;;;;;;70.00;56.50;;;;;;;;5103128;27;8878;-73
2022/12/15 09:27:27;;;;;;;;;76.25;61.50;;;;;;;;5086968;28;8863;-72
2022/12/15 09:29:55;;;;;;;;;78.00;64.50;;;;;;;;5104310;27;9602;-73
2022/12/15 09:32:24;;;;;;;;;76.25;60.75;;;;;;;;5106001;27;8951;-73
2022/12/15 09:34:53;;;;;;;;;73.00;62.00;;;;;;;;5106254;27;8848;-74
2022/12/15 09:37:21;;;;;;;;;83.00;65.25;;;;;;;;5106305;27;8830;-73
2022/12/15 09:39:49;;;;;;;;;75.00;61.00;;;;;;;;5087518;27;8856;-74
2022/12/15 09:42:24;;;;;;;;;74.50;62.75;;;;;;;;5104625;28;8848;-74
2022/12/15 09:44:59;;;;;;;;;20.00;20.00;;;;;;;;5104453;27;9644;-72
2022/12/15 09:47:33;;;;;;;;;67.25;57.75;;;;;;;;5105607;27;8852;-74
2022/12/15 09:50:06;;;;;;;;;70.75;60.00;;;;;;;;5088962;28;8858;-74
2022/12/15 09:52:39;;;;;;;;;74.50;61.50;;;;;;;;5107099;27;8886;-73
2022/12/15 09:55:19;;;;;;;;;66.50;57.50;;;;;;;;5085307;28;8867;-74
2022/12/15 09:57:53;;;;;;;;;81.75;66.00;;;;;;;;5104854;27;8856;-75
2022/12/15 10:00:23;;;;;;;;;71.50;59.25;;;;;;;;5104178;27;8872;-75
2022/12/15 10:03:44;;;;;;;;;;;;;;;;;;;;;
2022/12/15 10:06:17;;;;;;;;;74.75;61.75;;;;;;;;5102171;27;9638;-74
2022/12/15 10:08:47;;;;;;;;;69.25;57.25;;;;;;;;5083852;27;8868;-74
2022/12/15 10:11:22;;;;;;;;;66.50;53.50;;;;;;;;5111875;27;8876;-75
2022/12/15 10:13:55;;;;;;;;;76.75;61.00;;;;;;;;5102019;27;8957;-75
2022/12/15 10:16:29;;;;;;;;;72.75;62.00;;;;;;;;5084515;27;8859;-73
2022/12/15 10:19:07;;;;;;;;;69.25;59.00;;;;;;;;5081319;28;8866;-75
2022/12/15 10:21:37;;;;;;;;;69.75;59.00;;;;;;;;5101208;27;8878;-74
2022/12/15 10:24:16;;;;;;;;;65.25;53.00;;;;;;;;5083226;28;8828;-73
2022/12/15 10:26:46;;;;;;;;;66.00;53.75;;;;;;;;5103455;27;8809;-71
2022/12/15 10:29:24;;;;;;;;;60.75;53.50;;;;;;;;5082484;27;8925;-74
2022/12/15 10:31:55;;;;;;;;;70.75;58.25;;;;;;;;5102022;27;9585;-73
2022/12/15 10:34:27;;;;;;;;;67.25;57.00;;;;;;;;5101319;27;8828;-71
2022/12/15 10:36:58;;;;;;;;;66.25;53.75;;;;;;;;5102298;27;8971;-73
2022/12/15 10:39:38;;;;;;;;;71.25;57.50;;;;;;;;5081238;27;8868;-71
2022/12/15 10:42:19;;;;;;;;;64.33;52.00;;;;;;;;5101715;28;8856;-72
2022/12/15 10:44:48;;;;;;;;;65.67;52.67;;;;;;;;5079815;27;8846;-74
2022/12/15 10:47:21;;;;;;;;;68.00;54.33;;;;;;;;5098333;27;8861;-74
2022/12/15 10:49:49;;;;;;;;;57.67;47.67;;;;;;;;5100308;28;8875;-76
2022/12/15 10:52:25;;;;;;;;;47.67;45.33;;;;;;;;5102040;28;8856;-74
2022/12/15 10:54:54;;;;;;;;;63.33;51.00;;;;;;;;5099886;27;9641;-75
2022/12/15 10:57:30;;;;;;;;;56.67;45.00;;;;;;;;5101140;27;8824;-75
2022/12/15 11:00:29;;;;;;;;;51.33;46.00;;;;;;;;5100140;27;8840;-75
2022/12/15 11:02:57;;;;;;;;;59.00;46.00;;;;;;;;5100292;27;8856;-75
2022/12/15 11:05:25;;;;;;;;;47.00;44.00;;;;;;;;5081879;27;8839;-73
2022/12/15 11:07:58;;;;;;;;;39.33;37.00;;;;;;;;5102545;28;8903;-73
2022/12/15 11:10:27;;;;;;;;;51.00;44.00;;;;;;;;5101636;28;8868;-74
2022/12/15 11:13:09;;;;;;;;;51.67;42.33;;;;;;;;5101884;27;9022;-73
2022/12/15 11:15:47;;;;;;;;;46.67;41.67;;;;;;;;5100389;27;9884;-73
2022/12/15 11:18:36;;;;;;;;;49.00;40.67;;;;;;;;5100491;27;9677;-72
2022/12/15 11:21:08;;;;;;;;;51.00;44.67;;;;;;;;5082084;28;8991;-71
2022/12/15 11:23:54;;;;;;;;;55.67;44.00;;;;;;;;5100808;28;9770;-73
2022/12/15 11:26:29;;;;;;;;;46.00;42.67;;;;;;;;5099123;27;8860;-74
2022/12/15 11:29:02;;;;;;;;;57.67;44.00;;;;;;;;5100188;28;8990;-73
2022/12/15 11:31:35;;;;;;;;;48.67;44.67;;;;;;;;5099724;28;8871;-71
2022/12/15 11:34:03;;;;;;;;;46.00;42.67;;;;;;;;5084095;27;9589;-71
2022/12/15 11:36:49;;;;;;;;;40.67;39.33;;;;;;;;5102097;27;8844;-71
2022/12/15 11:39:25;;;;;;;;;47.33;44.00;;;;;;;;5102408;28;8850;-72
2022/12/15 11:41:56;;;;;;;;;42.00;37.67;;;;;;;;5103705;28;9674;-72
2022/12/15 11:44:26;;;;;;;;;47.33;42.67;;;;;;;;5084045;27;9750;-71
2022/12/15 11:47:06;;;;;;;;;54.67;45.00;;;;;;;;5103230;27;8856;-71
2022/12/15 11:49:53;;;;;;;;;48.33;42.67;;;;;;;;5085499;28;8878;-71
2022/12/15 11:52:43;;;;;;;;;52.33;42.67;;;;;;;;5101202;27;8843;-71
2022/12/15 11:55:21;;;;;;;;;45.33;40.33;;;;;;;;5098997;27;8844;-71
2022/12/15 11:58:01;;;;;;;;;44.00;39.67;;;;;;;;5103475;28;8864;-71
2022/12/15 12:00:34;;;;;;;;;58.33;47.00;;;;;;;;5087024;28;8858;-73
2022/12/15 12:03:12;;;;;;;;;47.67;41.67;;;;;;;;5084709;28;8866;-72
2022/12/15 12:06:03;;;;;;;;;46.67;41.33;;;;;;;;5101147;28;8944;-72
2022/12/15 12:10:47;;;;;;;;;58.00;46.67;;;;;;;;5087990;27;13295;-72
2022/12/15 12:13:23;;;;;;;;;42.33;40.00;;;;;;;;5068226;28;9117;-72
2022/12/15 12:15:59;;;;;;;;;45.00;34.67;;;;;;;;5064958;28;8851;-71
2022/12/15 12:18:29;;;;;;;;;43.67;38.00;;;;;;;;5077880;28;8872;-71
2022/12/15 12:21:01;;;;;;;;;52.33;44.00;;;;;;;;5079456;28;8888;-70
2022/12/15 12:23:35;;;;;;;;;37.67;35.00;;;;;;;;5076212;28;8954;-71
2022/12/15 12:26:11;;;;;;;;;39.33;36.67;;;;;;;;5077324;28;8830;-71
2022/12/15 12:28:45;;;;;;;;;38.67;33.33;;;;;;;;5078351;28;8833;-71
2022/12/15 12:31:22;;;;;;;;;40.00;37.33;;;;;;;;5079763;28;8980;-71
2022/12/15 12:33:55;;;;;;;;;40.33;35.67;;;;;;;;5077837;28;8832;-72
2022/12/15 12:36:22;;;;;;;;;46.00;42.33;;;;;;;;5075712;28;8837;-72
2022/12/15 12:38:52;;;;;;;;;38.33;32.33;;;;;;;;5077247;28;9587;-73
2022/12/15 12:41:30;;;;;;;;;35.33;32.00;;;;;;;;5078811;28;8838;-73
2022/12/15 12:44:00;;;;;;;;;33.00;29.00;;;;;;;;5065154;28;8829;-74
2022/12/15 12:46:30;;;;;;;;;28.00;25.33;;;;;;;;5077056;28;8864;-73
2022/12/15 12:49:03;;;;;;;;;37.67;36.00;;;;;;;;5078531;28;8826;-73
2022/12/15 12:51:32;;;;;;;;;38.33;38.00;;;;;;;;5077469;28;8849;-73
2022/12/15 12:54:00;;;;;;;;;31.00;31.00;;;;;;;;5078189;28;8874;-73
2022/12/15 12:56:33;;;;;;;;;29.67;29.00;;;;;;;;5076880;28;8853;-73
2022/12/15 12:59:06;;;;;;;;;30.00;30.00;;;;;;;;5076802;28;8837;-73
2022/12/15 13:01:37;;;;;;;;;28.33;25.33;;;;;;;;5064186;28;8915;-72
2022/12/15 13:04:10;;;;;;;;;35.33;31.67;;;;;;;;5077908;28;8841;-73
2022/12/15 13:07:01;;;;;;;;;38.00;31.33;;;;;;;;5075230;28;11669;-74
2022/12/15 13:09:39;;;;;;;;;27.33;26.33;;;;;;;;5074546;28;11549;-71
2022/12/15 13:12:35;;;;;;;;;29.00;26.00;;;;;;;;5076236;28;8822;-73
2022/12/15 13:15:06;;;;;;;;;31.00;30.33;;;;;;;;5079100;28;11522;-74
2022/12/15 13:17:40;;;;;;;;;29.67;29.67;;;;;;;;5077542;28;8972;-74
2022/12/15 13:20:22;;;;;;;;;44.67;39.00;;;;;;;;5074306;28;11587;-73
2022/12/15 13:22:53;;;;;;;;;46.33;39.00;;;;;;;;5064668;28;8878;-73
2022/12/15 13:25:36;;;;;;;;;38.67;31.00;;;;;;;;5063609;28;8860;-73
2022/12/15 13:28:27;;;;;;;;;40.33;35.67;;;;;;;;5063257;28;11446;-74
2022/12/15 13:31:36;;;;;;;;;31.00;26.67;;;;;;;;5062932;28;8823;-74
2022/12/15 13:34:24;;;;;;;;;40.75;35.00;;;;;;;;5062648;28;11617;-73
2022/12/15 13:37:02;;;;;;;;;30.33;26.33;;;;;;;;5064151;28;11499;-73
2022/12/15 13:39:36;;;;;;;;;41.67;36.33;;;;;;;;5056157;28;11530;-74
2022/12/15 13:42:32;;;;;;;;;29.67;27.33;;;;;;;;5059344;28;12251;-74
2022/12/15 13:45:42;;;;;;;;;38.75;37.00;;;;;;;;5061579;28;11502;-73
2022/12/15 13:48:34;;;;;;;;;38.25;37.75;;;;;;;;5022217;28;11604;-74
2022/12/15 13:51:19;;;;;;;;;33.75;32.75;;;;;;;;5061086;28;11492;-73
2022/12/15 13:53:55;;;;;;;;;38.50;37.75;;;;;;;;5058951;28;11603;-74
2022/12/15 13:56:41;;;;;;;;;35.75;26.00;;;;;;;;5061789;28;11552;-74
2022/12/15 13:59:27;;;;;;;;;49.25;36.50;;;;;;;;5061550;28;11481;-74
2022/12/15 14:01:57;;;;;;;;;52.00;41.33;;;;;;;;5062103;28;12911;-74
2022/12/15 14:04:28;;;;;;;;;39.00;33.00;;;;;;;;5060780;28;11601;-74
2022/12/15 14:06:58;;;;;;;;;47.25;37.50;;;;;;;;5059801;28;11891;-75
2022/12/15 14:09:29;;;;;;;;;41.25;34.50;;;;;;;;5061420;28;12317;-74
2022/12/15 14:11:57;;;;;;;;;30.25;27.75;;;;;;;;5059015;28;11579;-74
2022/12/15 14:14:27;;;;;;;;;40.00;35.75;;;;;;;;5058993;28;11507;-74
2022/12/15 14:17:02;;;;;;;;;29.50;29.50;;;;;;;;5061410;28;11671;-74
2022/12/15 14:19:42;;;;;;;;;39.50;35.00;;;;;;;;5042533;28;11488;-75
2022/12/15 14:22:22;;;;;;;;;41.00;33.25;;;;;;;;5061716;28;11617;-74
2022/12/15 14:24:49;;;;;;;;;52.25;41.25;;;;;;;;5059222;28;11472;-75
2022/12/15 14:27:23;;;;;;;;;38.25;35.00;;;;;;;;5061835;28;11565;-75
2022/12/15 14:29:50;;;;;;;;;35.75;31.50;;;;;;;;5060028;28;11485;-74
2022/12/15 14:32:18;;;;;;;;;30.75;28.25;;;;;;;;5061572;28;11613;-74
2022/12/15 14:34:49;;;;;;;;;38.25;36.00;;;;;;;;5045080;28;11668;-74
2022/12/15 14:37:19;;;;;;;;;36.50;35.00;;;;;;;;5061606;28;11490;-74
2022/12/15 14:39:48;;;;;;;;;27.25;24.00;;;;;;;;5046100;28;11481;-73
2022/12/15 14:42:18;;;;;;;;;25.25;22.50;;;;;;;;5060262;28;11579;-74
2022/12/15 14:44:47;;;;;;;;;22.00;20.50;;;;;;;;5061520;28;11550;-75
2022/12/15 14:47:21;;;;;;;;;26.00;21.75;;;;;;;;5060255;28;11570;-74
2022/12/15 14:49:51;;;;;;;;;29.50;25.50;;;;;;;;5061973;28;11495;-74
2022/12/15 14:52:27;;;;;;;;;22.50;22.00;;;;;;;;5063118;28;11493;-74
2022/12/15 14:54:56;;;;;;;;;21.75;20.75;;;;;;;;5044561;28;12733;-75
2022/12/15 14:57:26;;;;;;;;;22.75;22.75;;;;;;;;5062937;28;11533;-74
2022/12/15 14:59:54;;;;;;;;;25.50;22.25;;;;;;;;5059325;28;12647;-74
2022/12/15 15:02:24;;;;;;;;;24.50;24.00;;;;;;;;5045516;28;11593;-75
2022/12/15 15:05:03;;;;;;;;;31.50;29.25;;;;;;;;5057149;28;11716;-74
2022/12/15 15:07:32;;;;;;;;;22.50;22.50;;;;;;;;5062612;28;11532;-75
2022/12/15 15:10:01;;;;;;;;;27.50;22.50;;;;;;;;5056977;28;12301;-75
2022/12/15 15:12:41;;;;;;;;;27.00;22.75;;;;;;;;5058173;28;11534;-75
2022/12/15 15:15:11;;;;;;;;;25.00;24.25;;;;;;;;5059801;28;11491;-75
2022/12/15 15:17:43;;;;;;;;;24.00;20.25;;;;;;;;5060744;28;11485;-74
2022/12/15 15:20:20;;;;;;;;;22.50;17.25;;;;;;;;5045458;28;11436;-75
2022/12/15 15:23:02;;;;;;;;;24.50;21.75;;;;;;;;5060871;28;11517;-75
2022/12/15 15:25:36;;;;;;;;;27.33;26.33;;;;;;;;5059430;28;11534;-75
2022/12/15 15:28:14;;;;;;;;;27.50;23.00;;;;;;;;5045216;28;11485;-75
2022/12/15 15:30:43;;;;;;;;;20.33;20.33;;;;;;;;5060766;28;11558;-75
2022/12/15 15:33:12;;;;;;;;;26.67;22.00;;;;;;;;5061657;28;11454;-75
2022/12/15 15:35:43;;;;;;;;;24.75;24.00;;;;;;;;5059006;28;11567;-76
2022/12/15 15:38:17;;;;;;;;;25.00;23.33;;;;;;;;5057539;28;11454;-76
2022/12/15 15:40:50;;;;;;;;;29.00;27.00;;;;;;;;5062060;28;11479;-75
2022/12/15 15:43:18;;;;;;;;;22.67;22.67;;;;;;;;5054856;28;11683;-74
2022/12/15 15:45:46;;;;;;;;;21.00;20.00;;;;;;;;5059262;28;8838;-75
2022/12/15 15:48:18;;;;;;;;;25.00;22.00;;;;;;;;5057933;28;11460;-75
2022/12/15 15:50:47;;;;;;;;;28.67;27.67;;;;;;;;5056620;28;8865;-74
2022/12/15 15:53:17;;;;;;;;;34.00;27.67;;;;;;;;5059622;28;8852;-76
2022/12/15 15:55:45;;;;;;;;;35.67;33.67;;;;;;;;5059900;28;8826;-77
2022/12/15 15:58:13;;;;;;;;;27.67;26.33;;;;;;;;5059177;28;8893;-77
2022/12/15 16:00:40;;;;;;;;;29.67;28.00;;;;;;;;5058739;28;8829;-75
2022/12/15 16:03:08;;;;;;;;;39.33;37.00;;;;;;;;5022720;28;8963;-81
2022/12/15 16:05:37;;;;;;;;;27.67;23.67;;;;;;;;5045257;28;8869;-76
2022/12/15 16:08:07;;;;;;;;;40.67;39.00;;;;;;;;5062271;28;8838;-75
2022/12/15 16:10:34;;;;;;;;;34.00;34.00;;;;;;;;5059252;28;8900;-75
2022/12/15 16:13:05;;;;;;;;;22.00;19.00;;;;;;;;5061216;28;8873;-78
2022/12/15 16:15:33;;;;;;;;;41.67;36.67;;;;;;;;5048113;28;8952;-74
2022/12/15 16:18:00;;;;;;;;;39.00;35.00;;;;;;;;5047696;28;8810;-75
2022/12/15 16:20:29;;;;;;;;;45.33;40.33;;;;;;;;5049908;28;8864;-75
2022/12/15 16:22:59;;;;;;;;;41.67;36.33;;;;;;;;5060073;28;8825;-75
2022/12/15 16:25:31;;;;;;;;;37.33;33.33;;;;;;;;5046368;28;8842;-74
2022/12/15 16:27:59;;;;;;;;;50.00;43.67;;;;;;;;5060370;28;8854;-75
2022/12/15 16:30:28;;;;;;;;;46.67;42.00;;;;;;;;5059695;28;8837;-80
2022/12/15 16:32:56;;;;;;;;;48.33;40.67;;;;;;;;5040863;28;8857;-77
2022/12/15 16:35:25;;;;;;;;;54.33;45.00;;;;;;;;5057933;28;8864;-78
2022/12/15 16:37:53;;;;;;;;;53.33;43.67;;;;;;;;5057390;28;8838;-77
2022/12/15 16:40:23;;;;;;;;;60.33;49.33;;;;;;;;5056066;28;8856;-78
2022/12/15 16:43:00;;;;;;;;;52.33;44.33;;;;;;;;5054507;28;8867;-78
2022/12/15 16:45:29;;;;;;;;;64.33;53.67;;;;;;;;5057167;28;9618;-77
2022/12/15 16:47:57;;;;;;;;;68.33;53.33;;;;;;;;5057865;28;8834;-78
2022/12/15 16:50:30;;;;;;;;;68.00;54.67;;;;;;;;5046548;28;8925;-76
2022/12/15 16:52:59;;;;;;;;;66.00;55.67;;;;;;;;5055224;28;8854;-77
2022/12/15 16:55:31;;;;;;;;;73.00;55.67;;;;;;;;5059425;28;8860;-77
2022/12/15 16:58:01;;;;;;;;;72.50;57.75;;;;;;;;5059968;28;8884;-77
2022/12/15 17:00:32;;;;;;;;;96.50;81.25;;;;;;;;5061564;28;8895;-77
2022/12/15 17:03:01;;;;;;;;;69.00;57.50;;;;;;;;5066914;28;8824;-82
2022/12/15 17:05:31;;;;;;;;;87.00;70.25;;;;;;;;5064011;28;8953;-82
2022/12/15 17:08:00;;;;;;;;;86.00;68.25;;;;;;;;5065768;28;8841;-80
2022/12/15 17:10:30;;;;;;;;;80.50;65.50;;;;;;;;5062637;28;8839;-81
2022/12/15 17:13:11;;;;;;;;;89.50;71.50;;;;;;;;5047306;28;8822;-80
2022/12/15 17:15:39;;;;;;;;;82.25;64.25;;;;;;;;5056974;28;8846;-83
2022/12/15 17:18:07;;;;;;;;;65.33;53.33;;;;;;;;5061205;28;8870;-82